KLM44M ENBR-EHAM
Flight info
| Callsign | KLM44M |
|---|---|
| Flight time | N/A |
| Altitude | 34000 |
| Route | TUXIL DCT ZOL DCT ATNAK DCT TIPAN DCT WECOW DCT LARDI DCT TOPPA |
| Aircraft | A333/H-SDE3GHIJ2J3J5M1RVWXY/LB2D1 |
Departure
| Time | 2026-04-30 13:40 |
|---|---|
| Airport | Bergen Airport, Flesland (ENBR) |
Arrival
| Time | N/A |
|---|---|
| Airport | Amsterdam Airport Schiphol (EHAM) |
| Time | Latitude | Longitude | Altitude | Speed | Heading |
|---|---|---|---|---|---|
| 2026-04-30 13:14 | 60.28936 | 5.22521 | 154 ft | 0 kts | 116° |
| 2026-04-30 13:28 | 60.28960 | 5.22425 | 155 ft | 3 kts | 95° |
| 2026-04-30 13:28 | 60.28960 | 5.22398 | 155 ft | 3 kts | 64° |
| 2026-04-30 13:31 | 60.28947 | 5.22367 | 154 ft | 0 kts | 15° |
| 2026-04-30 13:33 | 60.28980 | 5.22379 | 155 ft | 10 kts | 7° |
| 2026-04-30 13:33 | 60.29106 | 5.22235 | 156 ft | 11 kts | 325° |
| 2026-04-30 13:34 | 60.29182 | 5.22190 | 157 ft | 13 kts | 348° |
| 2026-04-30 13:34 | 60.29552 | 5.22066 | 160 ft | 20 kts | 351° |
| 2026-04-30 13:35 | 60.29707 | 5.22013 | 161 ft | 26 kts | 351° |
| 2026-04-30 13:35 | 60.30091 | 5.21885 | 164 ft | 28 kts | 351° |
| 2026-04-30 13:36 | 60.30416 | 5.21766 | 167 ft | 5 kts | 333° |
| 2026-04-30 13:36 | 60.30440 | 5.21702 | 167 ft | 5 kts | 284° |
| 2026-04-30 13:36 | 60.30440 | 5.21666 | 167 ft | 0 kts | 262° |
| 2026-04-30 13:38 | 60.30420 | 5.21501 | 166 ft | 8 kts | 246° |
| 2026-04-30 13:38 | 60.30381 | 5.21469 | 165 ft | 3 kts | 169° |
| 2026-04-30 13:38 | 60.30351 | 5.21480 | 165 ft | 0 kts | 169° |
| 2026-04-30 13:39 | 60.30171 | 5.21536 | 163 ft | 57 kts | 171° |
| 2026-04-30 13:39 | 60.28623 | 5.22041 | 336 ft | 140 kts | 172° |
| 2026-04-30 13:40 | 60.27668 | 5.22295 | 989 ft | 136 kts | 175° |
| 2026-04-30 13:40 | 60.26720 | 5.22651 | 1517 ft | 143 kts | 167° |
| 2026-04-30 13:40 | 60.25688 | 5.23198 | 1887 ft | 159 kts | 169° |
| 2026-04-30 13:40 | 60.24520 | 5.23454 | 2318 ft | 172 kts | 176° |
| 2026-04-30 13:41 | 60.23287 | 5.23811 | 2772 ft | 188 kts | 172° |
| 2026-04-30 13:41 | 60.21872 | 5.24289 | 2863 ft | 225 kts | 171° |
| 2026-04-30 13:41 | 60.20222 | 5.24846 | 3278 ft | 245 kts | 172° |
| 2026-04-30 13:41 | 60.18531 | 5.25417 | 4065 ft | 248 kts | 172° |
| 2026-04-30 13:42 | 60.16813 | 5.25996 | 4909 ft | 252 kts | 173° |
| 2026-04-30 13:42 | 60.15062 | 5.26582 | 5750 ft | 255 kts | 173° |
| 2026-04-30 13:42 | 60.11484 | 5.27772 | 7405 ft | 263 kts | 174° |
| 2026-04-30 13:43 | 60.10088 | 5.28234 | 7907 ft | 248 kts | 175° |
| 2026-04-30 13:43 | 60.09515 | 5.28415 | 8002 ft | 240 kts | 175° |
| 2026-04-30 13:43 | 60.07899 | 5.28884 | 8419 ft | 223 kts | 177° |
| 2026-04-30 13:43 | 60.04961 | 5.29657 | 9071 ft | 256 kts | 176° |
| 2026-04-30 13:44 | 60.03003 | 5.30174 | 9751 ft | 267 kts | 175° |
| 2026-04-30 13:44 | 60.01728 | 5.30517 | 10317 ft | 270 kts | 175° |
| 2026-04-30 13:44 | 59.99772 | 5.31040 | 10856 ft | 285 kts | 175° |
| 2026-04-30 13:44 | 59.97045 | 5.31763 | 11278 ft | 312 kts | 175° |
| 2026-04-30 13:45 | 59.93254 | 5.32774 | 12282 ft | 328 kts | 175° |
| 2026-04-30 13:45 | 59.90827 | 5.33424 | 13063 ft | 332 kts | 175° |
| 2026-04-30 13:45 | 59.89239 | 5.33849 | 13596 ft | 333 kts | 175° |
| 2026-04-30 13:46 | 59.85876 | 5.34745 | 14637 ft | 338 kts | 175° |
| 2026-04-30 13:46 | 59.83516 | 5.35371 | 15268 ft | 342 kts | 175° |
| 2026-04-30 13:46 | 59.82012 | 5.35769 | 15643 ft | 345 kts | 175° |
| 2026-04-30 13:46 | 59.78705 | 5.36515 | 16496 ft | 350 kts | 178° |
| 2026-04-30 13:47 | 59.76287 | 5.36928 | 17059 ft | 354 kts | 178° |
| 2026-04-30 13:47 | 59.73650 | 5.37360 | 17687 ft | 358 kts | 178° |
| 2026-04-30 13:47 | 59.71928 | 5.37641 | 18093 ft | 361 kts | 178° |
| 2026-04-30 13:47 | 59.69318 | 5.38069 | 18703 ft | 364 kts | 178° |
| 2026-04-30 13:48 | 59.67218 | 5.38414 | 19121 ft | 368 kts | 178° |
| 2026-04-30 13:48 | 59.64143 | 5.38983 | 19705 ft | 372 kts | 176° |
| 2026-04-30 13:48 | 59.62531 | 5.39368 | 20013 ft | 375 kts | 176° |
| 2026-04-30 13:48 | 59.58874 | 5.40296 | 20690 ft | 380 kts | 176° |
| 2026-04-30 13:49 | 59.56464 | 5.40912 | 21121 ft | 383 kts | 176° |
| 2026-04-30 13:49 | 59.53472 | 5.41675 | 21656 ft | 387 kts | 176° |
| 2026-04-30 13:49 | 59.50745 | 5.42366 | 22138 ft | 390 kts | 176° |
| 2026-04-30 13:49 | 59.48023 | 5.43054 | 22590 ft | 394 kts | 175° |
| 2026-04-30 13:50 | 59.47211 | 5.43259 | 22727 ft | 395 kts | 175° |
| 2026-04-30 13:50 | 59.39620 | 5.45215 | 23981 ft | 404 kts | 174° |
| 2026-04-30 13:50 | 59.36887 | 5.46105 | 24344 ft | 407 kts | 172° |
| 2026-04-30 13:51 | 59.34051 | 5.47130 | 24721 ft | 411 kts | 172° |
| 2026-04-30 13:51 | 59.31130 | 5.48230 | 25098 ft | 414 kts | 172° |
| 2026-04-30 13:51 | 59.30251 | 5.48563 | 25213 ft | 414 kts | 172° |
| 2026-04-30 13:52 | 59.21123 | 5.51966 | 26362 ft | 422 kts | 172° |
| 2026-04-30 13:52 | 59.17426 | 5.53310 | 26791 ft | 425 kts | 172° |
| 2026-04-30 13:52 | 59.14200 | 5.54475 | 27182 ft | 428 kts | 172° |
| 2026-04-30 13:53 | 59.10834 | 5.55685 | 27565 ft | 431 kts | 172° |
| 2026-04-30 13:53 | 59.08211 | 5.56626 | 27862 ft | 433 kts | 172° |
| 2026-04-30 13:53 | 59.05246 | 5.57687 | 28188 ft | 435 kts | 172° |
| 2026-04-30 13:53 | 59.02261 | 5.58755 | 28521 ft | 438 kts | 172° |
| 2026-04-30 13:54 | 58.99249 | 5.59831 | 28843 ft | 440 kts | 172° |
| 2026-04-30 13:54 | 58.96234 | 5.60906 | 29151 ft | 442 kts | 172° |
| 2026-04-30 13:54 | 58.93158 | 5.62001 | 29468 ft | 445 kts | 172° |
| 2026-04-30 13:54 | 58.90125 | 5.62978 | 29788 ft | 446 kts | 175° |
| 2026-04-30 13:55 | 58.87002 | 5.63258 | 30089 ft | 447 kts | 184° |
| 2026-04-30 13:55 | 58.83773 | 5.62649 | 30409 ft | 448 kts | 189° |
| 2026-04-30 13:55 | 58.80682 | 5.61726 | 30654 ft | 449 kts | 191° |
| 2026-04-30 13:55 | 58.77533 | 5.60627 | 30923 ft | 451 kts | 192° |
| 2026-04-30 13:56 | 58.74476 | 5.59496 | 31202 ft | 453 kts | 193° |
| 2026-04-30 13:56 | 58.72356 | 5.58700 | 31363 ft | 454 kts | 193° |
| 2026-04-30 13:56 | 58.68175 | 5.57142 | 31716 ft | 456 kts | 192° |
| 2026-04-30 13:56 | 58.65042 | 5.55995 | 31965 ft | 458 kts | 192° |
| 2026-04-30 13:57 | 58.61943 | 5.54877 | 32218 ft | 460 kts | 192° |
| 2026-04-30 13:57 | 58.58792 | 5.53753 | 32455 ft | 461 kts | 192° |
| 2026-04-30 13:57 | 58.55633 | 5.52635 | 32745 ft | 462 kts | 192° |
| 2026-04-30 13:57 | 58.52474 | 5.51522 | 33104 ft | 460 kts | 192° |
| 2026-04-30 13:58 | 58.49326 | 5.50416 | 33444 ft | 459 kts | 192° |
| 2026-04-30 13:58 | 58.43058 | 5.48217 | 34122 ft | 457 kts | 192° |
| 2026-04-30 13:58 | 58.40938 | 5.47474 | 34334 ft | 457 kts | 192° |
| 2026-04-30 13:59 | 58.37826 | 5.46385 | 34484 ft | 452 kts | 192° |
| 2026-04-30 13:59 | 58.34807 | 5.45333 | 34481 ft | 438 kts | 192° |
| 2026-04-30 13:59 | 58.31845 | 5.44303 | 34489 ft | 430 kts | 192° |
| 2026-04-30 14:00 | 58.25956 | 5.42252 | 34492 ft | 430 kts | 192° |
| 2026-04-30 14:00 | 58.17068 | 5.39164 | 34495 ft | 439 kts | 192° |
| 2026-04-30 14:01 | 58.10916 | 5.37036 | 34492 ft | 451 kts | 192° |
| 2026-04-30 14:01 | 58.04716 | 5.34903 | 34491 ft | 460 kts | 192° |
| 2026-04-30 14:02 | 57.98408 | 5.32745 | 34492 ft | 461 kts | 192° |
| 2026-04-30 14:02 | 57.92104 | 5.30596 | 34491 ft | 460 kts | 192° |
| 2026-04-30 14:03 | 57.85796 | 5.28451 | 34491 ft | 460 kts | 192° |
| 2026-04-30 14:03 | 57.79485 | 5.26311 | 34489 ft | 460 kts | 191° |
| 2026-04-30 14:04 | 57.73159 | 5.24173 | 34488 ft | 462 kts | 191° |
| 2026-04-30 14:04 | 57.66837 | 5.22046 | 34491 ft | 459 kts | 191° |
| 2026-04-30 14:05 | 57.63701 | 5.20995 | 34487 ft | 444 kts | 191° |
| 2026-04-30 14:05 | 57.60711 | 5.19997 | 34489 ft | 430 kts | 191° |
| 2026-04-30 14:05 | 57.57796 | 5.19024 | 34489 ft | 417 kts | 191° |
| 2026-04-30 14:05 | 57.54990 | 5.18089 | 34487 ft | 404 kts | 191° |
| 2026-04-30 14:06 | 57.52272 | 5.17183 | 34487 ft | 391 kts | 191° |
| 2026-04-30 14:06 | 57.47070 | 5.15451 | 34485 ft | 367 kts | 191° |
| 2026-04-30 14:07 | 57.39685 | 5.12996 | 34486 ft | 365 kts | 191° |
| 2026-04-30 14:08 | 57.31917 | 5.10421 | 34487 ft | 387 kts | 191° |
| 2026-04-30 14:08 | 57.23655 | 5.07704 | 34496 ft | 409 kts | 191° |
| 2026-04-30 14:09 | 57.17907 | 5.05822 | 34489 ft | 424 kts | 191° |
| 2026-04-30 14:10 | 57.08960 | 5.02906 | 34495 ft | 434 kts | 191° |
| 2026-04-30 14:10 | 57.02997 | 5.00971 | 34482 ft | 434 kts | 191° |
| 2026-04-30 14:11 | 56.96971 | 4.99125 | 34492 ft | 434 kts | 189° |
| 2026-04-30 14:11 | 56.90914 | 4.97521 | 34492 ft | 433 kts | 188° |
| 2026-04-30 14:12 | 56.84855 | 4.95961 | 34487 ft | 433 kts | 189° |
| 2026-04-30 14:12 | 56.79939 | 4.94682 | 34483 ft | 434 kts | 189° |
| 2026-04-30 14:13 | 56.73854 | 4.93086 | 34488 ft | 434 kts | 189° |
| 2026-04-30 14:13 | 56.67869 | 4.91515 | 34496 ft | 434 kts | 189° |
| 2026-04-30 14:14 | 56.61845 | 4.89938 | 34483 ft | 434 kts | 189° |
| 2026-04-30 14:14 | 56.55799 | 4.88362 | 34478 ft | 434 kts | 189° |
| 2026-04-30 14:15 | 56.49858 | 4.86819 | 34482 ft | 434 kts | 189° |
| 2026-04-30 14:15 | 56.43894 | 4.85274 | 34477 ft | 434 kts | 188° |
| 2026-04-30 14:16 | 56.37884 | 4.83723 | 34485 ft | 433 kts | 188° |
| 2026-04-30 14:16 | 56.31844 | 4.82169 | 34481 ft | 434 kts | 188° |
| 2026-04-30 14:17 | 56.25932 | 4.80653 | 34482 ft | 433 kts | 188° |
| 2026-04-30 14:17 | 56.20915 | 4.79370 | 34475 ft | 434 kts | 188° |